Time;durP1;ratioP1;P1;durP2;ratioP2;P2;SDS_P1;SDS_P2;PMS_P1;PMS_P2;Temp;Humidity;BMP_temperature;BMP_pressure;BME280_temperature;BME280_humidity;BME280_pressure;Samples;Min_cycle;Max_cycle;Signal;HPM_P1;HPM_P2
2021/06/29 00:02:29;;;;;;;0.10;0.10;;;;;;;17.94;82.93;101338.59;10493708;28;20133;-62
2021/06/29 00:07:29;;;;;;;0.10;0.10;;;;;;;18.04;82.79;101328.31;10495762;28;20023;-62
2021/06/29 00:12:29;;;;;;;0.10;0.10;;;;;;;17.96;83.03;101326.59;10495671;28;20024;-62
2021/06/29 00:17:30;;;;;;;0.10;0.10;;;;;;;17.94;83.47;101322.44;10477606;28;20032;-62
2021/06/29 00:22:30;;;;;;;0.10;0.10;;;;;;;17.91;83.35;101329.03;10495857;28;20028;-62
2021/06/29 00:27:31;;;;;;;0.10;0.10;;;;;;;17.86;83.58;101336.91;10494982;28;20115;-62
2021/06/29 00:32:31;;;;;;;0.10;0.10;;;;;;;17.85;83.43;101341.44;10494542;28;20024;-62
2021/06/29 00:37:32;;;;;;;0.10;0.10;;;;;;;17.89;83.36;101341.91;10491857;28;20262;-62
2021/06/29 00:42:32;;;;;;;0.10;0.10;;;;;;;17.92;82.61;101333.44;10483143;28;20016;-62
2021/06/29 00:47:33;;;;;;;0.10;0.10;;;;;;;17.91;82.14;101341.69;10494288;28;20025;-62
2021/06/29 00:52:34;;;;;;;0.10;0.10;;;;;;;17.91;82.62;101345.22;10493989;28;20025;-62
2021/06/29 00:57:35;;;;;;;0.10;0.10;;;;;;;17.86;82.83;101335.03;10493896;28;20070;-62
2021/06/29 01:02:37;;;;;;;0.10;0.10;;;;;;;17.80;82.21;101337.66;10493122;28;20086;-62
2021/06/29 01:07:37;;;;;;;0.10;0.10;;;;;;;17.77;82.97;101329.94;10493038;28;20021;-62
2021/06/29 01:12:37;;;;;;;0.10;0.10;;;;;;;17.72;82.74;101329.69;10492707;28;20028;-62
2021/06/29 01:17:38;;;;;;;0.10;0.10;;;;;;;17.58;82.46;101334.94;10492537;28;20020;-59
2021/06/29 01:22:38;;;;;;;0.10;0.10;;;;;;;17.42;83.48;101319.03;10491058;28;20016;-58
2021/06/29 01:28:07;;;;;;;0.10;0.10;;;;;;;17.34;84.09;101327.28;10492049;28;20027;-59
2021/06/29 01:33:08;;;;;;;0.10;0.10;;;;;;;17.33;84.84;101309.44;10491022;28;20034;-58
2021/06/29 01:38:15;;;;;;;0.10;0.10;;;;;;;17.17;84.85;101305.97;10491110;28;20050;-58
2021/06/29 01:43:18;;;;;;;0.10;0.10;;;;;;;17.04;86.53;101299.59;10490838;28;20013;-59
2021/06/29 01:48:22;;;;;;;0.10;0.10;;;;;;;16.98;86.13;101282.34;10491136;28;20491;-58
2021/06/29 01:53:23;;;;;;;0.10;0.10;;;;;;;16.96;86.02;101282.56;10490196;28;20070;-58
2021/06/29 01:58:26;;;;;;;0.10;0.10;;;;;;;16.82;86.06;101280.75;10490071;28;20054;-59
2021/06/29 02:03:26;;;;;;;0.10;0.10;;;;;;;16.78;86.57;101289.34;10488442;28;20021;-57
2021/06/29 02:08:26;;;;;;;0.10;0.10;;;;;;;16.80;86.78;101288.16;10490783;28;20017;-58
2021/06/29 02:13:27;;;;;;;0.10;0.10;;;;;;;16.73;86.58;101279.16;10490085;28;20019;-57
2021/06/29 02:18:28;;;;;;;0.10;0.10;;;;;;;16.60;86.99;101282.50;10490356;28;20035;-57
2021/06/29 02:23:28;;;;;;;0.10;0.10;;;;;;;16.54;87.43;101294.00;10490367;28;20103;-58
2021/06/29 02:28:28;;;;;;;0.10;0.10;;;;;;;16.56;87.32;101275.00;10489898;28;20027;-56
2021/06/29 02:33:29;;;;;;;0.10;0.10;;;;;;;16.59;87.49;101286.22;10488632;28;20023;-55
2021/06/29 02:38:29;;;;;;;0.10;0.10;;;;;;;16.60;87.29;101287.88;10490345;28;20016;-56
2021/06/29 02:43:31;;;;;;;0.10;0.10;;;;;;;16.61;87.70;101286.00;10470675;28;20020;-55
2021/06/29 02:48:31;;;;;;;0.10;0.10;;;;;;;16.53;87.39;101285.09;10471552;28;20278;-59
2021/06/29 02:53:32;;;;;;;0.10;0.10;;;;;;;16.48;87.32;101271.38;10488842;28;20069;-58
2021/06/29 02:58:32;;;;;;;0.10;0.10;;;;;;;16.40;87.13;101267.97;10489164;28;20074;-59
2021/06/29 03:03:32;;;;;;;0.10;0.10;;;;;;;16.30;87.93;101254.81;10488495;28;20374;-57
2021/06/29 03:08:32;;;;;;;0.10;0.10;;;;;;;16.28;88.63;101257.66;10478794;28;20036;-59
2021/06/29 03:13:37;;;;;;;0.10;0.10;;;;;;;16.28;88.74;101252.28;10493324;28;20020;-58
2021/06/29 03:18:38;;;;;;;0.10;0.10;;;;;;;16.40;89.09;101255.34;10494491;28;20029;-59
2021/06/29 03:23:39;;;;;;;0.10;0.10;;;;;;;16.60;88.91;101250.22;10494234;28;20386;-57
2021/06/29 03:28:39;;;;;;;0.10;0.10;;;;;;;16.87;88.13;101245.19;10493327;28;20025;-57
2021/06/29 03:33:40;;;;;;;0.10;0.10;;;;;;;17.69;86.21;101254.66;10493751;28;20024;-58
2021/06/29 03:38:40;;;;;;;0.10;0.10;;;;;;;18.80;82.15;101246.59;10495383;28;20483;-56
2021/06/29 03:43:41;;;;;;;0.10;0.10;;;;;;;19.81;79.02;101266.25;10489593;28;20040;-58
2021/06/29 03:48:41;;;;;;;0.10;0.10;;;;;;;20.38;76.41;101274.66;10479136;28;20038;-59
2021/06/29 03:53:42;;;;;;;0.10;0.10;;;;;;;20.02;77.37;101275.16;10493868;28;20263;-60
2021/06/29 03:58:42;;;;;;;0.10;0.10;;;;;;;19.45;79.25;101272.03;10485079;28;20036;-58
2021/06/29 04:03:42;;;;;;;0.10;0.10;;;;;;;19.11;80.65;101271.19;10482705;28;20020;-56
2021/06/29 04:08:43;;;;;;;0.05;0.05;;;;;;;19.02;81.96;101276.94;10488604;28;20020;-58
2021/06/29 04:13:43;;;;;;;0.10;0.10;;;;;;;19.04;82.10;101266.78;10493406;28;20019;-57
2021/06/29 04:18:43;;;;;;;0.10;0.10;;;;;;;19.06;83.15;101273.66;10494019;28;20099;-59
2021/06/29 04:23:44;;;;;;;0.10;0.10;;;;;;;19.04;83.43;101274.88;10492517;28;20058;-59
2021/06/29 04:28:46;;;;;;;0.10;0.10;;;;;;;19.05;83.87;101271.13;10493764;28;20028;-60
2021/06/29 04:33:46;;;;;;;0.10;0.10;;;;;;;19.10;84.08;101277.59;10492865;28;20104;-60
2021/06/29 04:38:47;;;;;;;0.10;0.10;;;;;;;19.24;84.84;101281.16;10483523;28;20024;-58
2021/06/29 04:43:48;;;;;;;0.10;0.10;;;;;;;19.57;84.25;101289.28;10472775;28;20025;-56
2021/06/29 04:48:48;;;;;;;0.10;0.10;;;;;;;20.12;83.17;101279.06;10486152;28;20032;-57
2021/06/29 04:53:48;;;;;;;0.10;0.10;;;;;;;20.73;81.26;101267.03;10492334;28;20247;-57
2021/06/29 04:58:53;;;;;;;0.00;0.00;;;;;;;21.01;80.87;101274.00;10492649;28;20024;-59
2021/06/29 05:03:53;;;;;;;0.10;0.10;;;;;;;20.93;80.33;101283.19;10491272;28;20482;-59
2021/06/29 05:08:53;;;;;;;0.10;0.10;;;;;;;20.88;80.64;101265.94;10492158;28;20027;-58
2021/06/29 05:13:54;;;;;;;0.10;0.10;;;;;;;20.98;80.76;101261.72;10491771;28;20019;-59
2021/06/29 05:18:54;;;;;;;0.10;0.10;;;;;;;21.13;80.39;101255.16;10491581;28;20494;-58
2021/06/29 05:23:54;;;;;;;0.10;0.10;;;;;;;21.24;79.95;101273.44;10491026;28;20478;-59
2021/06/29 05:28:55;;;;;;;0.10;0.10;;;;;;;21.37;79.64;101277.94;10473234;28;20468;-56
2021/06/29 05:33:55;;;;;;;0.10;0.10;;;;;;;21.62;79.69;101284.22;10491157;22;20464;-63
2021/06/29 05:38:55;;;;;;;0.10;0.10;;;;;;;21.88;77.96;101283.16;10445285;28;20368;-62
2021/06/29 05:43:56;;;;;;;0.10;0.10;;;;;;;22.23;77.22;101290.78;10405445;28;20033;-64
2021/06/29 05:48:56;;;;;;;0.10;0.10;;;;;;;22.59;76.14;101289.91;10405092;28;20030;-63
2021/06/29 05:53:56;;;;;;;0.10;0.10;;;;;;;22.74;75.77;101285.97;10404177;28;20105;-62
2021/06/29 05:58:57;;;;;;;0.10;0.10;;;;;;;22.77;75.20;101280.91;10391933;28;20392;-63
2021/06/29 06:03:57;;;;;;;0.10;0.10;;;;;;;22.93;73.98;101276.75;10405457;28;20017;-64
2021/06/29 06:08:57;;;;;;;0.10;0.10;;;;;;;23.28;73.31;101281.50;10404365;28;20057;-62
2021/06/29 06:13:57;;;;;;;0.10;0.10;;;;;;;23.93;71.35;101288.81;10404445;28;20026;-64
2021/06/29 06:18:58;;;;;;;0.10;0.10;;;;;;;24.49;69.05;101281.91;10404570;28;20032;-64
2021/06/29 06:23:58;;;;;;;0.10;0.10;;;;;;;24.91;68.38;101278.13;10403977;28;20222;-63
2021/06/29 06:28:59;;;;;;;0.10;0.10;;;;;;;25.04;67.54;101283.25;10404593;28;20092;-64
2021/06/29 06:33:59;;;;;;;0.10;0.10;;;;;;;24.93;66.80;101278.66;10404042;28;20025;-64
2021/06/29 06:38:59;;;;;;;0.10;0.10;;;;;;;24.71;67.70;101263.03;10404741;28;20021;-64
2021/06/29 06:44:00;;;;;;;0.10;0.10;;;;;;;24.63;68.50;101263.41;10403681;28;20021;-63
2021/06/29 06:49:00;;;;;;;0.10;0.10;;;;;;;24.68;66.57;101262.69;10400658;28;20416;-64
2021/06/29 06:54:00;;;;;;;0.10;0.10;;;;;;;25.04;67.17;101261.44;10393291;28;20105;-64
2021/06/29 06:59:00;;;;;;;0.10;0.10;;;;;;;24.93;66.45;101248.69;10403353;28;20155;-64
2021/06/29 07:04:01;;;;;;;0.10;0.10;;;;;;;24.81;66.91;101246.88;10407274;28;20022;-63
2021/06/29 07:09:02;;;;;;;0.10;0.10;;;;;;;24.91;67.21;101245.41;10406427;28;20026;-63
2021/06/29 07:14:03;;;;;;;0.10;0.10;;;;;;;25.01;67.11;101253.75;10390214;28;20433;-65
2021/06/29 07:19:03;;;;;;;0.10;0.10;;;;;;;24.91;67.58;101264.47;10412282;28;20117;-63
2021/06/29 07:24:04;;;;;;;0.10;0.10;;;;;;;24.82;67.88;101259.41;10381755;28;20030;-63
2021/06/29 07:29:05;;;;;;;0.10;0.10;;;;;;;24.78;67.53;101273.75;10396821;28;20022;-63
2021/06/29 07:34:05;;;;;;;0.10;0.10;;;;;;;24.69;67.77;101272.50;10410821;28;20022;-63
2021/06/29 07:39:06;;;;;;;0.10;0.10;;;;;;;24.65;68.42;101272.16;10411756;28;20033;-63
2021/06/29 07:44:06;;;;;;;0.00;0.00;;;;;;;24.72;68.60;101272.00;10410154;28;20029;-65
2021/06/29 07:49:07;;;;;;;0.10;0.10;;;;;;;24.77;68.35;101262.03;10410194;28;20028;-64
2021/06/29 07:54:07;;;;;;;0.10;0.10;;;;;;;24.91;67.24;101268.03;10409488;28;20284;-64
2021/06/29 07:59:07;;;;;;;0.10;0.10;;;;;;;25.02;65.86;101261.69;10409870;28;20116;-64
2021/06/29 08:04:08;;;;;;;0.00;0.00;;;;;;;25.18;65.50;101265.53;10409238;28;20024;-64
2021/06/29 08:09:08;;;;;;;0.10;0.10;;;;;;;25.46;63.59;101258.41;10407337;28;20028;-64
2021/06/29 08:14:08;;;;;;;0.10;0.10;;;;;;;25.77;64.27;101256.13;10408580;28;20060;-64
2021/06/29 08:19:09;;;;;;;0.10;0.10;;;;;;;26.01;61.28;101254.06;10408354;28;20539;-64
2021/06/29 08:24:09;;;;;;;0.10;0.10;;;;;;;26.15;62.21;101248.00;10407767;28;20021;-63
2021/06/29 08:29:09;;;;;;;0.00;0.00;;;;;;;26.36;61.52;101240.88;10408096;28;20027;-64
2021/06/29 08:34:10;;;;;;;0.10;0.10;;;;;;;26.61;59.69;101250.47;10407619;28;20272;-62
2021/06/29 08:39:15;;;;;;;0.10;0.10;;;;;;;26.65;59.02;101257.09;10406910;28;20064;-63
2021/06/29 08:44:15;;;;;;;0.10;0.10;;;;;;;26.68;58.94;101253.84;10407350;28;20025;-62
2021/06/29 08:49:16;;;;;;;0.10;0.10;;;;;;;26.56;61.11;101261.38;10407893;28;20029;-64
2021/06/29 08:54:19;;;;;;;0.10;0.10;;;;;;;26.35;60.46;101260.22;10408100;28;20667;-65
2021/06/29 08:59:19;;;;;;;0.10;0.10;;;;;;;26.20;61.13;101248.03;10389554;28;20052;-65
2021/06/29 09:04:42;;;;;;;0.10;0.10;;;;;;;25.92;60.58;101240.84;10389294;28;20018;-64
2021/06/29 09:09:47;;;;;;;0.10;0.10;;;;;;;25.50;61.22;101240.44;10406281;28;20049;-64
2021/06/29 09:14:48;;;;;;;0.00;0.00;;;;;;;25.14;63.44;101256.22;10404293;28;20059;-65
2021/06/29 09:19:48;;;;;;;0.10;0.10;;;;;;;25.16;64.72;101254.09;10405855;28;20459;-65
2021/06/29 09:24:48;;;;;;;0.03;0.03;;;;;;;25.24;65.06;101250.94;10405722;28;20061;-65
2021/06/29 09:29:49;;;;;;;0.10;0.10;;;;;;;25.26;64.40;101251.50;10405590;28;20018;-65
2021/06/29 09:35:09;;;;;;;0.10;0.10;;;;;;;25.30;64.53;101255.38;10404805;28;20025;-63
2021/06/29 09:40:14;;;;;;;0.10;0.10;;;;;;;25.20;64.88;101244.31;10404943;28;20115;-65
2021/06/29 09:45:35;;;;;;;0.10;0.10;;;;;;;24.99;65.16;101245.84;10405331;28;20079;-65
2021/06/29 09:50:49;;;;;;;0.10;0.10;;;;;;;24.82;65.90;101242.25;10405105;28;20025;-63
2021/06/29 09:55:56;;;;;;;0.10;0.10;;;;;;;24.66;66.78;101249.28;10405614;28;20053;-65
2021/06/29 10:01:01;;;;;;;0.10;0.10;;;;;;;24.51;68.31;101251.72;10404805;28;20300;-65
2021/06/29 10:06:09;;;;;;;0.10;0.10;;;;;;;24.31;68.03;101252.91;10405110;28;20026;-63
2021/06/29 10:11:16;;;;;;;0.10;0.10;;;;;;;24.19;70.22;101254.84;10399268;28;20451;-64
2021/06/29 10:16:21;;;;;;;0.10;0.10;;;;;;;24.04;71.30;101257.22;10402374;28;20559;-64
2021/06/29 10:21:23;;;;;;;0.10;0.10;;;;;;;24.04;72.32;101265.41;10407036;28;20386;-65
2021/06/29 10:26:25;;;;;;;0.00;0.00;;;;;;;24.05;71.73;101264.31;10414968;28;20037;-66
2021/06/29 10:31:29;;;;;;;0.10;0.10;;;;;;;23.91;71.99;101261.00;10414105;28;20029;-65
2021/06/29 10:36:31;;;;;;;0.10;0.10;;;;;;;23.78;73.47;101264.81;10397038;28;20037;-64
2021/06/29 10:41:35;;;;;;;0.10;0.10;;;;;;;23.43;72.63;101260.13;10413648;28;20025;-66
2021/06/29 10:46:40;;;;;;;0.00;0.00;;;;;;;23.34;75.37;101261.53;10394188;28;20124;-64
2021/06/29 10:51:41;;;;;;;0.10;0.10;;;;;;;23.43;75.59;101254.69;10413572;28;20033;-64
2021/06/29 10:56:55;;;;;;;0.10;0.10;;;;;;;23.56;75.50;101252.81;10412951;28;20388;-65
2021/06/29 11:01:56;;;;;;;0.10;0.10;;;;;;;23.50;74.39;101241.84;10412753;28;20040;-64
2021/06/29 11:06:56;;;;;;;0.10;0.10;;;;;;;23.43;74.25;101238.38;10413187;28;20040;-63
2021/06/29 11:12:21;;;;;;;0.10;0.10;;;;;;;23.37;73.57;101236.59;10412692;28;20029;-65
2021/06/29 11:17:22;;;;;;;0.10;0.10;;;;;;;23.43;74.03;101230.22;10409824;28;20484;-64
2021/06/29 11:23:01;;;;;;;0.05;0.05;;;;;;;23.57;72.63;101230.84;10411813;28;20048;-65
2021/06/29 11:28:03;;;;;;;0.10;0.10;;;;;;;23.59;70.10;101231.44;10412021;28;20450;-63
2021/06/29 11:38:41;;;;;;;0.00;0.00;;;;;;;23.79;71.02;101217.50;10387971;28;20132;-67
2021/06/29 11:43:41;;;;;;;0.00;0.00;;;;;;;24.06;69.08;101217.84;10413745;28;20029;-67
2021/06/29 11:48:43;;;;;;;0.10;0.10;;;;;;;24.36;71.53;101211.38;10413843;28;20433;-67
2021/06/29 11:53:43;;;;;;;0.00;0.00;;;;;;;24.61;68.94;101208.38;10413570;28;20520;-67
2021/06/29 11:58:47;;;;;;;0.10;0.10;;;;;;;24.84;68.07;101201.94;10413281;28;20038;-67
2021/06/29 12:03:48;;;;;;;0.10;0.10;;;;;;;25.00;66.33;101203.06;10410781;28;20057;-67
2021/06/29 12:08:57;;;;;;;0.00;0.00;;;;;;;25.03;63.24;101199.84;10322622;28;20477;-67
2021/06/29 12:13:57;;;;;;;0.10;0.10;;;;;;;24.99;65.61;101194.06;10330910;28;20145;-66
2021/06/29 12:18:58;;;;;;;0.05;0.05;;;;;;;25.14;66.10;101190.81;10330859;28;20072;-67
2021/06/29 12:23:59;;;;;;;0.00;0.00;;;;;;;25.27;64.69;101179.56;10330263;28;20030;-68
2021/06/29 12:28:59;;;;;;;0.10;0.10;;;;;;;25.38;64.52;101166.09;10331213;28;20027;-67
2021/06/29 12:33:59;;;;;;;0.10;0.10;;;;;;;25.39;66.11;101170.47;10369031;28;20026;-67
2021/06/29 12:39:01;;;;;;;0.00;0.00;;;;;;;25.35;63.48;101169.31;10370454;28;20564;-67
2021/06/29 12:44:07;;;;;;;0.10;0.10;;;;;;;25.23;61.92;101164.78;10369405;28;20022;-67
2021/06/29 12:49:08;;;;;;;0.10;0.10;;;;;;;25.37;61.45;101161.72;10370176;28;20025;-65
2021/06/29 12:54:12;;;;;;;0.10;0.10;;;;;;;25.54;60.90;101157.06;10370182;28;20040;-68
2021/06/29 12:59:14;;;;;;;0.00;0.00;;;;;;;25.78;58.54;101167.75;10371047;28;20257;-67
2021/06/29 13:04:16;;;;;;;0.10;0.10;;;;;;;25.73;59.02;101166.59;10364522;28;20473;-67
2021/06/29 13:09:19;;;;;;;0.10;0.10;;;;;;;25.38;60.54;101166.09;10365653;28;20037;-67
2021/06/29 13:14:19;;;;;;;0.00;0.00;;;;;;;25.00;60.87;101163.00;10351146;28;20037;-67
2021/06/29 13:19:21;;;;;;;0.10;0.10;;;;;;;24.72;63.27;101152.97;10369324;28;20025;-67
2021/06/29 13:24:23;;;;;;;0.10;0.10;;;;;;;24.51;63.51;101143.63;10368547;28;20065;-66
2021/06/29 13:29:31;;;;;;;0.00;0.00;;;;;;;24.26;63.64;101152.13;10368962;28;20033;-67
2021/06/29 13:34:34;;;;;;;0.10;0.10;;;;;;;24.00;64.17;101148.06;10360999;28;20026;-67
2021/06/29 13:39:34;;;;;;;0.10;0.10;;;;;;;23.79;65.95;101143.22;10353301;28;20024;-67
2021/06/29 13:44:35;;;;;;;0.10;0.10;;;;;;;23.66;68.96;101150.56;10368187;28;20041;-67
2021/06/29 13:49:35;;;;;;;0.10;0.10;;;;;;;23.45;68.05;101165.59;10350601;28;20393;-67
2021/06/29 13:54:36;;;;;;;0.10;0.10;;;;;;;22.88;70.17;101167.13;10368074;28;20421;-67
2021/06/29 13:59:39;;;;;;;0.03;0.03;;;;;;;22.44;72.41;101155.66;10368173;28;20048;-67
2021/06/29 14:04:53;;;;;;;0.00;0.00;;;;;;;22.11;73.48;101155.00;10364996;28;20030;-67
2021/06/29 14:09:53;;;;;;;0.10;0.10;;;;;;;21.84;74.89;101145.53;10326026;28;20049;-66
2021/06/29 14:15:10;;;;;;;0.10;0.10;;;;;;;21.70;75.41;101139.44;10328185;28;20064;-67
2021/06/29 14:20:11;;;;;;;0.03;0.03;;;;;;;21.62;75.78;101137.00;10327520;28;20513;-67
2021/06/29 14:25:11;;;;;;;0.00;0.00;;;;;;;21.56;77.15;101137.91;10327526;28;20038;-67
2021/06/29 14:30:12;;;;;;;0.10;0.10;;;;;;;21.65;78.49;101131.16;10327201;28;20026;-67
2021/06/29 14:35:12;;;;;;;0.10;0.10;;;;;;;21.79;77.64;101127.22;10327468;28;20031;-67
2021/06/29 14:40:13;;;;;;;0.10;0.10;;;;;;;21.92;77.68;101132.47;10327967;28;20038;-65
2021/06/29 14:45:17;;;;;;;0.00;0.00;;;;;;;22.07;76.01;101126.66;10327703;28;20027;-66
2021/06/29 14:50:20;;;;;;;0.00;0.00;;;;;;;22.14;73.74;101132.03;10326960;28;20405;-66
2021/06/29 14:55:20;;;;;;;0.10;0.10;;;;;;;22.13;73.40;101130.34;10327025;28;20026;-66
2021/06/29 15:00:20;;;;;;;0.10;0.10;;;;;;;21.98;73.58;101122.63;10326540;28;20437;-66
2021/06/29 15:05:21;;;;;;;0.10;0.10;;;;;;;22.04;73.91;101126.31;10340756;28;20483;-67
2021/06/29 15:10:21;;;;;;;0.00;0.00;;;;;;;22.08;73.98;101120.22;10374379;28;20269;-67
2021/06/29 15:15:22;;;;;;;0.10;0.10;;;;;;;22.06;72.58;101127.72;10374868;28;20249;-66
2021/06/29 15:20:22;;;;;;;0.10;0.10;;;;;;;22.02;72.70;101118.41;10374827;28;20033;-67
2021/06/29 15:25:24;;;;;;;0.10;0.10;;;;;;;22.19;72.29;101109.66;10374459;28;20022;-66
2021/06/29 15:30:24;;;;;;;0.00;0.00;;;;;;;22.42;71.46;101114.34;10372803;28;20035;-67
2021/06/29 15:35:25;;;;;;;0.10;0.10;;;;;;;22.37;72.34;101109.63;10351750;28;20026;-67
2021/06/29 15:40:31;;;;;;;0.10;0.10;;;;;;;22.36;71.52;101102.53;10316380;28;20022;-66
2021/06/29 15:45:31;;;;;;;0.00;0.00;;;;;;;22.41;71.42;101094.53;10329709;28;20029;-66
2021/06/29 15:50:32;;;;;;;0.00;0.00;;;;;;;22.29;72.08;101099.91;10327256;28;20037;-67
2021/06/29 15:55:32;;;;;;;0.00;0.00;;;;;;;22.29;72.00;101091.78;10328684;28;20080;-67
2021/06/29 16:00:33;;;;;;;0.10;0.10;;;;;;;22.28;71.43;101083.84;10330137;28;20034;-67
2021/06/29 16:05:33;;;;;;;0.00;0.00;;;;;;;22.18;71.75;101073.56;10338425;28;20477;-67
2021/06/29 16:10:33;;;;;;;0.05;0.05;;;;;;;22.12;72.16;101071.75;10371895;28;20277;-67
2021/06/29 16:15:34;;;;;;;0.10;0.10;;;;;;;22.07;73.89;101069.69;10372469;28;20048;-66
2021/06/29 16:20:34;;;;;;;0.10;0.10;;;;;;;21.97;73.83;101064.00;10370797;28;20026;-67
2021/06/29 16:25:35;;;;;;;0.00;0.00;;;;;;;21.96;74.87;101056.91;10373668;28;20029;-66
2021/06/29 16:30:35;;;;;;;0.10;0.10;;;;;;;21.82;75.48;101067.13;10373275;28;20445;-67
2021/06/29 16:35:35;;;;;;;0.10;0.10;;;;;;;21.67;76.56;101059.38;10362426;28;20117;-67
2021/06/29 16:40:36;;;;;;;0.10;0.10;;;;;;;21.60;77.61;101061.34;10331523;28;20190;-66
2021/06/29 16:45:36;;;;;;;0.07;0.07;;;;;;;21.65;76.86;101049.81;10330332;28;20030;-67
2021/06/29 16:50:37;;;;;;;0.10;0.10;;;;;;;21.82;76.51;101050.84;10329730;28;20597;-66
2021/06/29 16:55:40;;;;;;;0.00;0.00;;;;;;;21.88;75.37;101054.53;10312453;28;20022;-67
2021/06/29 17:00:41;;;;;;;0.00;0.00;;;;;;;21.75;76.22;101060.94;10329878;28;20030;-66
2021/06/29 17:05:41;;;;;;;0.00;0.00;;;;;;;21.65;77.25;101061.50;10345960;28;20112;-67
2021/06/29 17:10:41;;;;;;;0.00;0.00;;;;;;;21.60;78.38;101069.47;10329327;28;20026;-67
2021/06/29 17:15:42;;;;;;;0.10;0.10;;;;;;;21.53;77.46;101063.31;10312026;28;20026;-67
2021/06/29 17:20:42;;;;;;;0.10;0.10;;;;;;;21.49;78.61;101070.22;10329007;28;20373;-67
2021/06/29 17:25:43;;;;;;;0.10;0.10;;;;;;;21.42;79.29;101064.06;10329349;28;20031;-67
2021/06/29 17:30:44;;;;;;;0.10;0.10;;;;;;;21.43;79.42;101050.25;10311583;28;20026;-66
2021/06/29 17:35:46;;;;;;;0.00;0.00;;;;;;;21.41;79.64;101051.53;10347559;28;20366;-67
2021/06/29 17:40:47;;;;;;;0.10;0.10;;;;;;;21.25;79.01;101048.34;10424514;22;20037;-61
2021/06/29 17:45:48;;;;;;;0.10;0.10;;;;;;;21.09;79.67;101032.69;10492376;28;20487;-58
2021/06/29 17:50:49;;;;;;;0.10;0.10;;;;;;;20.96;81.12;101022.81;10491422;28;20021;-61
2021/06/29 17:55:49;;;;;;;0.10;0.10;;;;;;;20.79;81.30;101014.41;10491896;28;20028;-58
2021/06/29 18:00:50;;;;;;;0.00;0.00;;;;;;;20.66;82.87;101005.59;10491712;28;20254;-61
2021/06/29 18:05:50;;;;;;;0.10;0.10;;;;;;;20.51;83.80;101011.31;10490336;28;20476;-57
2021/06/29 18:10:51;;;;;;;0.10;0.10;;;;;;;20.35;84.04;101021.59;10491073;28;20039;-60
2021/06/29 18:15:51;;;;;;;0.10;0.10;;;;;;;20.19;83.92;101016.75;10491730;28;20031;-59
2021/06/29 18:20:51;;;;;;;0.10;0.10;;;;;;;20.04;84.34;101027.00;10490659;28;20239;-58
2021/06/29 18:25:52;;;;;;;0.10;0.10;;;;;;;19.97;84.72;101043.28;10491151;28;20024;-59
2021/06/29 18:30:53;;;;;;;0.10;0.10;;;;;;;19.92;84.45;101036.84;10490905;28;20025;-58
2021/06/29 18:35:57;;;;;;;0.00;0.00;;;;;;;19.86;83.87;101050.19;10490605;28;20420;-59
2021/06/29 18:40:57;;;;;;;0.10;0.10;;;;;;;19.82;84.31;101042.72;10493561;28;20082;-59
2021/06/29 18:45:57;;;;;;;0.00;0.00;;;;;;;19.74;84.43;101030.28;10500704;28;20023;-59
2021/06/29 18:50:58;;;;;;;0.00;0.00;;;;;;;19.66;84.37;101030.53;10498816;28;20028;-58
2021/06/29 18:55:58;;;;;;;0.10;0.10;;;;;;;19.55;84.46;101032.00;10498903;28;20057;-58
2021/06/29 19:00:58;;;;;;;0.10;0.10;;;;;;;19.47;85.06;101036.81;10497426;28;20259;-58
2021/06/29 19:05:59;;;;;;;0.10;0.10;;;;;;;19.42;85.12;101035.56;10497730;28;20491;-58
2021/06/29 19:10:59;;;;;;;0.10;0.10;;;;;;;19.38;85.12;101031.63;10497230;28;20346;-58
2021/06/29 19:15:59;;;;;;;0.10;0.10;;;;;;;19.31;85.18;101030.81;10497597;28;20867;-57
2021/06/29 19:21:00;;;;;;;0.10;0.10;;;;;;;19.25;85.61;101033.53;10496799;28;20028;-59
2021/06/29 19:26:01;;;;;;;0.00;0.00;;;;;;;19.15;85.98;101032.09;10497654;28;20036;-58
2021/06/29 19:31:01;;;;;;;0.10;0.10;;;;;;;19.03;86.26;101022.16;10496376;28;20024;-59
2021/06/29 19:36:02;;;;;;;0.00;0.00;;;;;;;18.89;86.96;101035.66;10496923;28;20052;-58
2021/06/29 19:41:02;;;;;;;0.10;0.10;;;;;;;18.76;87.03;101043.75;10496380;28;20084;-58
2021/06/29 19:46:03;;;;;;;0.10;0.10;;;;;;;18.60;87.50;101041.47;10496673;28;20059;-59
2021/06/29 19:51:03;;;;;;;0.10;0.10;;;;;;;18.49;87.97;101035.63;10495600;28;20505;-57
2021/06/29 19:56:04;;;;;;;0.10;0.10;;;;;;;18.32;88.81;101024.44;10478196;28;20025;-59
2021/06/29 20:01:04;;;;;;;0.10;0.10;;;;;;;18.19;89.00;101028.97;10495658;28;20025;-58
2021/06/29 20:06:05;;;;;;;0.10;0.10;;;;;;;18.08;90.18;101028.50;10495543;28;20039;-59
2021/06/29 20:11:06;;;;;;;0.10;0.10;;;;;;;18.02;90.12;101026.63;10495204;28;20028;-59
2021/06/29 20:16:07;;;;;;;0.10;0.10;;;;;;;17.93;90.80;101030.56;10495328;28;20615;-59
2021/06/29 20:21:09;;;;;;;0.10;0.10;;;;;;;17.91;91.28;101016.44;10494884;28;20108;-59
2021/06/29 20:26:10;;;;;;;0.10;0.10;;;;;;;17.86;91.04;101025.16;10495469;28;20025;-59
2021/06/29 20:31:13;;;;;;;0.10;0.10;;;;;;;17.80;91.06;101041.28;10494721;28;20028;-58
2021/06/29 20:36:13;;;;;;;0.10;0.10;;;;;;;17.74;91.38;101042.03;10494266;28;20024;-57
2021/06/29 20:41:14;;;;;;;0.10;0.10;;;;;;;17.71;91.63;101034.38;10493478;28;20051;-59
2021/06/29 20:46:15;;;;;;;0.10;0.10;;;;;;;17.71;91.60;101039.75;10494361;28;20487;-59
2021/06/29 20:51:15;;;;;;;0.10;0.10;;;;;;;17.69;91.71;101037.28;10493647;28;20297;-59
2021/06/29 20:56:40;;;;;;;0.10;0.10;;;;;;;17.65;91.18;101030.59;10478413;28;20024;-60
2021/06/29 21:01:36;;;;;;;0.10;0.10;;;;;;;17.55;91.46;101028.31;10450514;28;20033;-59
2021/06/29 21:06:37;;;;;;;0.00;0.00;;;;;;;17.49;91.19;101031.78;10476524;28;20020;-59
2021/06/29 21:11:37;;;;;;;0.10;0.10;;;;;;;17.55;91.98;101022.91;10466580;28;20036;-59
2021/06/29 21:16:38;;;;;;;0.10;0.10;;;;;;;17.65;91.94;101011.75;10456079;28;20215;-59
2021/06/29 21:21:38;;;;;;;0.10;0.10;;;;;;;17.76;92.10;100999.56;10453147;28;20048;-59
2021/06/29 21:26:44;;;;;;;0.10;0.10;;;;;;;17.85;92.20;100990.31;10488933;28;20036;-58
2021/06/29 21:31:45;;;;;;;0.10;0.10;;;;;;;17.90;92.58;100993.22;10450145;28;20060;-60
2021/06/29 21:36:45;;;;;;;0.10;0.10;;;;;;;17.96;92.43;100988.91;10464534;28;20086;-60
2021/06/29 21:41:45;;;;;;;0.10;0.10;;;;;;;17.99;92.97;100975.00;10463853;28;20029;-60
2021/06/29 21:46:46;;;;;;;0.10;0.10;;;;;;;18.03;92.91;100979.78;10489485;28;20021;-60
2021/06/29 21:51:46;;;;;;;0.10;0.10;;;;;;;18.02;92.54;100985.38;10488241;28;20024;-59
2021/06/29 21:56:46;;;;;;;0.10;0.10;;;;;;;17.97;92.36;100983.28;10456469;28;20033;-60
2021/06/29 22:01:47;;;;;;;0.10;0.10;;;;;;;17.90;92.22;100981.63;10481905;28;20278;-60
2021/06/29 22:06:47;;;;;;;0.10;0.10;;;;;;;17.73;91.74;100981.94;10483520;28;20025;-58
2021/06/29 22:11:48;;;;;;;0.10;0.10;;;;;;;17.53;91.74;100992.66;10448489;28;20017;-60
2021/06/29 22:16:48;;;;;;;0.10;0.10;;;;;;;17.46;91.63;100994.50;10493209;28;20020;-60
2021/06/29 22:21:49;;;;;;;0.10;0.10;;;;;;;17.31;91.87;101001.88;10480037;28;20090;-60
2021/06/29 22:26:49;;;;;;;0.10;0.10;;;;;;;17.16;92.08;101005.53;10498542;28;20044;-59
2021/06/29 22:31:50;;;;;;;0.10;0.10;;;;;;;17.03;92.04;101004.59;10484683;28;20028;-60
2021/06/29 22:36:50;;;;;;;0.10;0.10;;;;;;;17.07;93.99;101006.69;10492953;28;20111;-58
2021/06/29 22:41:50;;;;;;;0.10;0.10;;;;;;;17.22;94.96;101014.69;10497069;28;20028;-59
2021/06/29 22:46:56;;;;;;;0.10;0.10;;;;;;;17.34;95.36;101020.34;10468351;28;20021;-59
2021/06/29 22:51:56;;;;;;;0.10;0.10;;;;;;;17.40;95.10;101020.34;10455861;28;20025;-59
2021/06/29 22:56:56;;;;;;;0.10;0.10;;;;;;;17.42;94.72;101026.38;10455780;28;20021;-60
2021/06/29 23:01:57;;;;;;;0.00;0.00;;;;;;;17.42;95.24;101022.84;10474897;28;20020;-58
2021/06/29 23:06:57;;;;;;;0.10;0.10;;;;;;;17.39;95.03;101031.31;10464404;28;20294;-60
2021/06/29 23:11:57;;;;;;;0.10;0.10;;;;;;;17.38;94.40;101038.56;10496746;28;21024;-57